Saddle Mountain, NC

10:17 PM EDT on April 24, 2017 (GMT -0400)
High Country Lights | | Change Station

Elev 2871 ft 36.51 °N, 80.95 °W | Updated 7 minutes ago

Rain
Rain
48.7 °F
Feels Like 47 °F
N
5.0
Wind Variable Wind from NNE
Gusts 5.0 mph

Today
High -- | Low -- °F
--% Chance of Precip.
Yesterday
High -- | Low -- °F
Precip. -- in
Pressure 29.81 in
Visibility 10.0 miles
Clouds Overcast 400 ft
Windchill 47 °F
Dew Point 48 °F
Humidity 98%
Rainfall 1.77 in
Snow Depth Not available.
6:38 AM 8:06 PM
Waning Crescent, 3% visible
METAR KHLX 250155Z AUTO 00000KT 10SM -RA OVC004 10/10 A2981 RMK AO2 P0004 T00950095
Pressure 29.81 in
Visibility 10.0 miles
Clouds Overcast 400 ft
Windchill 47 °F
Dew Point 48 °F
Humidity 98%
Rainfall 1.77 in
Snow Depth Not available.
6:38 AM 8:06 PM
Waning Crescent, 3% visible
METAR KHLX 250155Z AUTO 00000KT 10SM -RA OVC004 10/10 A2981 RMK AO2 P0004 T00950095

Get Severe Weather Alerts

Thanks for signing up!

Be on the lookout for a verification email in your inbox.

You'll start receiving the daily forecast at 8 AM.

×

10-Day Weather Forecast

Almanac

Astronomy

Apr. 24, 2017 Rise Set
Actual Time
Civil Twilight
Nautical Twilight
Astronomical Twilight
Moon
Length of Visible Light
Length of Day
Tomorrow will be .
, % of the Moon is Illuminated

Today's Extremes

State Highs State Lows

Community

WunderPhotos

WunderBlog® & News

Nearby

Air Quality

  Air Quality AQ Index Pollutant
Not available.

Snow Depth

Station Depth Elevation

Earthquake Activity

City Distance Mag. Time & Date
Minimum magnitude displayed is 2.5.

Coastal Water Temperatures

Place Temperature

Stations

Nearby Weather Stations

Station Location Temp. Windchill Dew Point Humidity Wind Precip. Elev Updated Type
                   

Watches & Warnings

There are currently no watches in effect.